sensor_id;sensor_type;location;lat;lon;timestamp;pressure;altitude;pressure_sealevel;temperature;humidity
22582;BME280;47125;48.542;9.052;2023-07-09T00:03:49;96435.59;;;25.38;nan
22582;BME280;47125;48.542;9.052;2023-07-09T00:13:56;96426.72;;;25.33;nan
22582;BME280;47125;48.542;9.052;2023-07-09T00:23:58;96436.34;;;25.04;nan
22582;BME280;47125;48.542;9.052;2023-07-09T00:34:05;96439.88;;;24.96;nan
22582;BME280;47125;48.542;9.052;2023-07-09T00:44:19;96435.53;;;24.95;nan
22582;BME280;47125;48.542;9.052;2023-07-09T00:54:25;96440.22;;;24.73;nan
22582;BME280;47125;48.542;9.052;2023-07-09T01:04:31;96443.81;;;24.82;nan
22582;BME280;47125;48.542;9.052;2023-07-09T01:14:35;96451.91;;;24.56;nan
22582;BME280;47125;48.542;9.052;2023-07-09T01:24:54;96459.41;;;24.42;nan
22582;BME280;47125;48.542;9.052;2023-07-09T01:34:58;96458.47;;;24.55;nan
22582;BME280;47125;48.542;9.052;2023-07-09T01:45:08;96456.56;;;24.25;nan
22582;BME280;47125;48.542;9.052;2023-07-09T01:55:12;96451.84;;;24.39;nan
22582;BME280;47125;48.542;9.052;2023-07-09T02:05:17;96447.41;;;24.21;nan
22582;BME280;47125;48.542;9.052;2023-07-09T02:15:20;96450.03;;;24.34;nan
22582;BME280;47125;48.542;9.052;2023-07-09T02:25:24;96459.00;;;24.26;nan
22582;BME280;47125;48.542;9.052;2023-07-09T02:35:27;96455.69;;;24.16;nan
22582;BME280;47125;48.542;9.052;2023-07-09T02:45:31;96455.94;;;24.05;nan
22582;BME280;47125;48.542;9.052;2023-07-09T02:55:33;96472.00;;;23.63;nan
22582;BME280;47125;48.542;9.052;2023-07-09T03:05:37;96484.94;;;23.57;nan
22582;BME280;47125;48.542;9.052;2023-07-09T03:15:40;96482.28;;;23.66;nan
22582;BME280;47125;48.542;9.052;2023-07-09T03:25:44;96491.00;;;23.54;nan
22582;BME280;47125;48.542;9.052;2023-07-09T03:35:46;96487.25;;;23.64;nan
22582;BME280;47125;48.542;9.052;2023-07-09T03:45:50;96500.28;;;23.53;nan
22582;BME280;47125;48.542;9.052;2023-07-09T03:55:54;96499.69;;;23.56;nan
22582;BME280;47125;48.542;9.052;2023-07-09T04:05:58;96500.25;;;23.17;nan
22582;BME280;47125;48.542;9.052;2023-07-09T04:16:01;96496.91;;;23.34;nan
22582;BME280;47125;48.542;9.052;2023-07-09T04:26:05;96502.88;;;23.22;nan
22582;BME280;47125;48.542;9.052;2023-07-09T04:36:10;96492.59;;;23.05;nan
22582;BME280;47125;48.542;9.052;2023-07-09T04:46:15;96510.16;;;22.99;nan
22582;BME280;47125;48.542;9.052;2023-07-09T04:56:18;96501.06;;;23.04;nan
22582;BME280;47125;48.542;9.052;2023-07-09T05:06:22;96517.13;;;23.19;nan
22582;BME280;47125;48.542;9.052;2023-07-09T05:16:24;96519.50;;;23.21;nan
22582;BME280;47125;48.542;9.052;2023-07-09T05:26:28;96525.88;;;23.02;nan
22582;BME280;47125;48.542;9.052;2023-07-09T05:36:31;96524.69;;;23.22;nan
22582;BME280;47125;48.542;9.052;2023-07-09T05:46:35;96525.00;;;23.07;nan
22582;BME280;47125;48.542;9.052;2023-07-09T05:56:38;96529.59;;;23.34;nan
22582;BME280;47125;48.542;9.052;2023-07-09T06:06:42;96536.78;;;23.30;nan
22582;BME280;47125;48.542;9.052;2023-07-09T06:16:45;96537.78;;;23.61;nan
22582;BME280;47125;48.542;9.052;2023-07-09T06:26:49;96538.56;;;23.62;nan
22582;BME280;47125;48.542;9.052;2023-07-09T06:36:51;96538.72;;;23.79;nan
22582;BME280;47125;48.542;9.052;2023-07-09T06:46:55;96542.75;;;24.03;nan
22582;BME280;47125;48.542;9.052;2023-07-09T06:56:58;96540.84;;;24.18;nan
22582;BME280;47125;48.542;9.052;2023-07-09T07:07:02;96538.53;;;24.33;nan
22582;BME280;47125;48.542;9.052;2023-07-09T07:17:05;96537.06;;;24.58;nan
22582;BME280;47125;48.542;9.052;2023-07-09T07:27:09;96534.00;;;24.82;nan
22582;BME280;47125;48.542;9.052;2023-07-09T07:37:12;96530.56;;;25.07;nan
22582;BME280;47125;48.542;9.052;2023-07-09T07:47:16;96530.00;;;25.27;nan
22582;BME280;47125;48.542;9.052;2023-07-09T07:57:18;96523.34;;;25.67;nan
22582;BME280;47125;48.542;9.052;2023-07-09T08:07:22;96518.69;;;25.85;nan
22582;BME280;47125;48.542;9.052;2023-07-09T08:17:24;96525.59;;;26.08;nan
22582;BME280;47125;48.542;9.052;2023-07-09T08:27:28;96524.28;;;26.49;nan
22582;BME280;47125;48.542;9.052;2023-07-09T08:37:31;96524.25;;;26.66;nan
22582;BME280;47125;48.542;9.052;2023-07-09T08:47:36;96521.31;;;26.88;nan
22582;BME280;47125;48.542;9.052;2023-07-09T08:57:43;96537.69;;;27.34;nan
22582;BME280;47125;48.542;9.052;2023-07-09T09:07:53;96536.97;;;27.55;nan
22582;BME280;47125;48.542;9.052;2023-07-09T09:17:58;96532.28;;;28.05;nan
22582;BME280;47125;48.542;9.052;2023-07-09T09:28:03;96539.31;;;28.15;nan
22582;BME280;47125;48.542;9.052;2023-07-09T09:38:09;96534.25;;;28.37;nan
22582;BME280;47125;48.542;9.052;2023-07-09T09:48:17;96539.00;;;28.61;nan
22582;BME280;47125;48.542;9.052;2023-07-09T09:58:24;96506.19;;;28.65;nan
22582;BME280;47125;48.542;9.052;2023-07-09T10:08:37;96503.50;;;29.49;nan
22582;BME280;47125;48.542;9.052;2023-07-09T10:18:47;96495.44;;;29.69;nan
22582;BME280;47125;48.542;9.052;2023-07-09T10:28:57;96501.56;;;30.02;nan
22582;BME280;47125;48.542;9.052;2023-07-09T10:39:04;96491.09;;;30.35;nan
22582;BME280;47125;48.542;9.052;2023-07-09T10:49:11;96486.66;;;30.74;nan
22582;BME280;47125;48.542;9.052;2023-07-09T10:59:22;96478.34;;;31.02;nan
22582;BME280;47125;48.542;9.052;2023-07-09T11:09:30;96472.28;;;31.12;nan
22582;BME280;47125;48.542;9.052;2023-07-09T11:19:40;96470.56;;;31.74;nan
22582;BME280;47125;48.542;9.052;2023-07-09T11:29:46;96458.69;;;31.54;nan
22582;BME280;47125;48.542;9.052;2023-07-09T11:39:51;96447.88;;;31.64;nan
22582;BME280;47125;48.542;9.052;2023-07-09T11:49:56;96456.84;;;32.15;nan
22582;BME280;47125;48.542;9.052;2023-07-09T11:59:59;96439.13;;;32.81;nan
22582;BME280;47125;48.542;9.052;2023-07-09T12:10:08;96432.81;;;32.58;nan
22582;BME280;47125;48.542;9.052;2023-07-09T12:20:16;96425.97;;;32.97;nan
22582;BME280;47125;48.542;9.052;2023-07-09T12:30:20;96426.25;;;33.41;nan
22582;BME280;47125;48.542;9.052;2023-07-09T12:40:23;96412.19;;;33.53;nan
22582;BME280;47125;48.542;9.052;2023-07-09T12:50:31;96399.19;;;34.17;nan
22582;BME280;47125;48.542;9.052;2023-07-09T13:00:35;96387.28;;;34.16;nan
22582;BME280;47125;48.542;9.052;2023-07-09T13:10:40;96381.16;;;34.37;nan
22582;BME280;47125;48.542;9.052;2023-07-09T13:20:43;96357.44;;;34.06;nan
22582;BME280;47125;48.542;9.052;2023-07-09T13:30:50;96371.25;;;34.80;nan
22582;BME280;47125;48.542;9.052;2023-07-09T13:40:54;96364.94;;;34.83;nan
22582;BME280;47125;48.542;9.052;2023-07-09T13:50:58;96362.91;;;35.27;nan
22582;BME280;47125;48.542;9.052;2023-07-09T14:01:08;96349.25;;;35.05;nan
22582;BME280;47125;48.542;9.052;2023-07-09T14:11:15;96342.22;;;35.18;nan
22582;BME280;47125;48.542;9.052;2023-07-09T14:21:18;96327.56;;;35.24;nan
22582;BME280;47125;48.542;9.052;2023-07-09T14:31:24;96310.66;;;35.51;nan
22582;BME280;47125;48.542;9.052;2023-07-09T14:41:28;96310.56;;;35.40;nan
22582;BME280;47125;48.542;9.052;2023-07-09T14:51:34;96303.00;;;35.33;nan
22582;BME280;47125;48.542;9.052;2023-07-09T15:01:37;96305.66;;;35.12;nan
22582;BME280;47125;48.542;9.052;2023-07-09T15:11:40;96304.88;;;34.57;nan
22582;BME280;47125;48.542;9.052;2023-07-09T15:21:45;96299.97;;;34.95;nan
22582;BME280;47125;48.542;9.052;2023-07-09T15:31:49;96289.00;;;35.12;nan
22582;BME280;47125;48.542;9.052;2023-07-09T15:41:52;96293.84;;;35.22;nan
22582;BME280;47125;48.542;9.052;2023-07-09T15:51:56;96288.03;;;34.83;nan
22582;BME280;47125;48.542;9.052;2023-07-09T16:01:59;96273.66;;;34.23;nan
22582;BME280;47125;48.542;9.052;2023-07-09T16:12:04;96267.84;;;33.99;nan
22582;BME280;47125;48.542;9.052;2023-07-09T16:22:09;96274.44;;;33.84;nan
22582;BME280;47125;48.542;9.052;2023-07-09T16:32:14;96269.59;;;33.73;nan
22582;BME280;47125;48.542;9.052;2023-07-09T16:42:16;96273.94;;;33.74;nan
22582;BME280;47125;48.542;9.052;2023-07-09T16:52:21;96263.84;;;33.56;nan
22582;BME280;47125;48.542;9.052;2023-07-09T17:02:28;96256.94;;;33.43;nan
22582;BME280;47125;48.542;9.052;2023-07-09T17:12:33;96251.50;;;33.50;nan
22582;BME280;47125;48.542;9.052;2023-07-09T17:22:35;96236.72;;;33.39;nan
22582;BME280;47125;48.542;9.052;2023-07-09T17:32:39;96243.81;;;33.36;nan
22582;BME280;47125;48.542;9.052;2023-07-09T17:42:42;96240.94;;;33.25;nan
22582;BME280;47125;48.542;9.052;2023-07-09T17:52:46;96245.72;;;33.02;nan
22582;BME280;47125;48.542;9.052;2023-07-09T18:02:51;96252.25;;;32.87;nan
22582;BME280;47125;48.542;9.052;2023-07-09T18:12:58;96263.75;;;32.89;nan
22582;BME280;47125;48.542;9.052;2023-07-09T18:23:03;96259.47;;;32.65;nan
22582;BME280;47125;48.542;9.052;2023-07-09T18:33:08;96257.91;;;32.68;nan
22582;BME280;47125;48.542;9.052;2023-07-09T18:43:13;96263.03;;;32.43;nan
22582;BME280;47125;48.542;9.052;2023-07-09T18:53:33;96266.50;;;32.14;nan
22582;BME280;47125;48.542;9.052;2023-07-09T19:03:36;96258.59;;;31.71;nan
22582;BME280;47125;48.542;9.052;2023-07-09T19:13:41;96270.69;;;31.24;nan
22582;BME280;47125;48.542;9.052;2023-07-09T19:23:43;96277.94;;;30.78;nan
22582;BME280;47125;48.542;9.052;2023-07-09T19:33:47;96283.94;;;30.49;nan
22582;BME280;47125;48.542;9.052;2023-07-09T19:43:49;96291.94;;;30.07;nan
22582;BME280;47125;48.542;9.052;2023-07-09T19:53:53;96285.19;;;29.89;nan
22582;BME280;47125;48.542;9.052;2023-07-09T20:03:56;96293.19;;;29.38;nan
22582;BME280;47125;48.542;9.052;2023-07-09T20:14:00;96294.91;;;29.43;nan
22582;BME280;47125;48.542;9.052;2023-07-09T20:24:07;96300.81;;;29.17;nan
22582;BME280;47125;48.542;9.052;2023-07-09T20:34:14;96298.94;;;28.81;nan
22582;BME280;47125;48.542;9.052;2023-07-09T20:44:19;96285.47;;;28.64;nan
22582;BME280;47125;48.542;9.052;2023-07-09T20:54:24;96289.81;;;28.41;nan
22582;BME280;47125;48.542;9.052;2023-07-09T21:04:26;96289.13;;;28.20;nan
22582;BME280;47125;48.542;9.052;2023-07-09T21:14:31;96286.75;;;27.98;nan
22582;BME280;47125;48.542;9.052;2023-07-09T21:24:35;96294.25;;;28.09;nan
22582;BME280;47125;48.542;9.052;2023-07-09T21:34:39;96295.22;;;27.92;nan
22582;BME280;47125;48.542;9.052;2023-07-09T21:44:42;96301.03;;;27.79;nan
22582;BME280;47125;48.542;9.052;2023-07-09T21:54:46;96308.41;;;27.54;nan
22582;BME280;47125;48.542;9.052;2023-07-09T22:04:53;96315.47;;;27.34;nan
22582;BME280;47125;48.542;9.052;2023-07-09T22:14:58;96313.63;;;27.26;nan
22582;BME280;47125;48.542;9.052;2023-07-09T22:25:05;96317.19;;;27.27;nan
22582;BME280;47125;48.542;9.052;2023-07-09T22:35:11;96314.09;;;27.28;nan
22582;BME280;47125;48.542;9.052;2023-07-09T22:45:15;96321.44;;;26.95;nan
22582;BME280;47125;48.542;9.052;2023-07-09T22:55:25;96329.22;;;26.64;nan
22582;BME280;47125;48.542;9.052;2023-07-09T23:05:28;96328.72;;;26.62;nan
22582;BME280;47125;48.542;9.052;2023-07-09T23:15:32;96332.56;;;26.69;nan
22582;BME280;47125;48.542;9.052;2023-07-09T23:25:34;96337.69;;;26.71;nan
22582;BME280;47125;48.542;9.052;2023-07-09T23:35:39;96340.28;;;26.76;nan
22582;BME280;47125;48.542;9.052;2023-07-09T23:45:41;96339.03;;;26.65;nan
22582;BME280;47125;48.542;9.052;2023-07-09T23:55:46;96339.22;;;26.60;nan
